Time;durP1;ratioP1;P1;durP2;ratioP2;P2;SDS_P1;SDS_P2;PMS_P1;PMS_P2;Temp;Humidity;BMP_temperature;BMP_pressure;BME280_temperature;BME280_humidity;BME280_pressure;Samples;Min_cycle;Max_cycle;Signal;HPM_P1;HPM_P2
2023/05/12 00:00:29;;;;;;;128.97;12.03;;;;;;;13.56;100.00;97901.88;4165786;28;20641;-80
2023/05/12 00:02:33;;;;;;;146.03;10.90;;;;;;;13.56;100.00;97899.25;4165031;28;20668;-81
2023/05/12 00:04:39;;;;;;;151.57;11.13;;;;;;;13.53;100.00;97892.50;4165444;28;20658;-80
2023/05/12 00:06:43;;;;;;;188.53;11.90;;;;;;;13.51;100.00;97889.16;4171188;28;20669;-80
2023/05/12 00:08:46;;;;;;;174.70;10.93;;;;;;;13.50;100.00;97881.41;4162226;28;21000;-80
2023/05/12 00:10:49;;;;;;;146.77;11.43;;;;;;;13.52;100.00;97888.22;4166569;28;20628;-80
2023/05/12 00:12:54;;;;;;;176.80;11.53;;;;;;;13.52;100.00;97879.53;4151728;28;21237;-80
2023/05/12 00:14:57;;;;;;;106.83;12.77;;;;;;;13.53;100.00;97889.03;4167892;28;20678;-80
2023/05/12 00:17:00;;;;;;;78.30;8.90;;;;;;;13.52;100.00;97875.09;4166267;28;20633;-80
2023/05/12 00:19:03;;;;;;;179.83;10.33;;;;;;;13.52;100.00;97875.09;4187049;28;20716;-80
2023/05/12 00:21:07;;;;;;;101.63;9.33;;;;;;;13.53;100.00;97876.78;4167228;28;20681;-80
2023/05/12 00:23:12;;;;;;;174.10;13.23;;;;;;;13.52;100.00;97880.34;4168264;28;20638;-80
2023/05/12 00:25:15;;;;;;;91.00;10.97;;;;;;;13.52;99.79;97874.28;4166695;28;20642;-81
2023/05/12 00:27:18;;;;;;;174.50;12.83;;;;;;;13.52;100.00;97875.09;4165918;28;20634;-81
2023/05/12 00:29:21;;;;;;;109.67;12.97;;;;;;;13.51;100.00;97873.44;4163634;28;20638;-80
2023/05/12 00:31:24;;;;;;;184.03;11.23;;;;;;;13.48;100.00;97868.44;4167503;28;20641;-81
2023/05/12 00:33:27;;;;;;;118.97;10.43;;;;;;;13.49;100.00;97866.69;4163864;28;20626;-80
2023/05/12 00:35:30;;;;;;;112.23;12.40;;;;;;;13.48;100.00;97867.63;4154935;28;20640;-81
2023/05/12 00:37:33;;;;;;;109.13;10.33;;;;;;;13.48;100.00;97868.44;4163735;28;20629;-80
2023/05/12 00:39:37;;;;;;;188.73;15.27;;;;;;;13.46;100.00;97873.00;4175610;28;20641;-80
2023/05/12 00:41:41;;;;;;;170.17;11.30;;;;;;;13.46;100.00;97864.31;4171950;28;21247;-81
2023/05/12 00:43:44;;;;;;;168.53;12.60;;;;;;;13.44;100.00;97871.44;4163570;28;20679;-81
2023/05/12 00:45:47;;;;;;;164.07;12.93;;;;;;;13.43;100.00;97875.88;4146922;28;20684;-80
2023/05/12 00:47:51;;;;;;;164.63;10.13;;;;;;;13.41;100.00;97879.56;4163966;28;20774;-80
2023/05/12 00:49:55;;;;;;;138.47;10.10;;;;;;;13.40;100.00;97881.38;4153972;28;20650;-80
2023/05/12 00:51:58;;;;;;;205.97;12.10;;;;;;;13.38;100.00;97880.66;4167145;28;20646;-80
2023/05/12 00:54:02;;;;;;;164.27;12.43;;;;;;;13.38;100.00;97872.81;4162966;28;20729;-80
2023/05/12 00:56:07;;;;;;;101.13;10.07;;;;;;;13.37;100.00;97876.38;4152069;28;21203;-80
2023/05/12 00:58:11;;;;;;;163.43;10.43;;;;;;;13.37;100.00;97880.78;4170267;28;20660;-81
2023/05/12 01:00:15;;;;;;;167.17;11.00;;;;;;;13.38;100.00;97880.66;4166055;28;20879;-80
2023/05/12 01:02:20;;;;;;;153.23;13.53;;;;;;;13.36;100.00;97877.31;4186874;28;20636;-80
2023/05/12 01:04:24;;;;;;;170.80;15.73;;;;;;;13.33;100.00;97876.75;4151602;28;20654;-81
2023/05/12 01:06:33;;;;;;;170.60;10.97;;;;;;;13.32;100.00;97872.47;4169341;28;20661;-80
2023/05/12 01:08:36;;;;;;;150.63;12.70;;;;;;;13.32;100.00;97865.47;4168284;28;20921;-80
2023/05/12 01:10:43;;;;;;;100.50;11.03;;;;;;;13.32;100.00;97870.69;4171289;28;20635;-81
2023/05/12 01:12:49;;;;;;;120.37;11.00;;;;;;;13.33;100.00;97863.66;4174432;28;21191;-80
2023/05/12 01:14:54;;;;;;;90.23;12.43;;;;;;;13.33;100.00;97871.53;4150740;28;20627;-80
2023/05/12 01:17:00;;;;;;;126.30;8.50;;;;;;;13.31;100.00;97862.97;4166966;28;20622;-81
2023/05/12 01:19:07;;;;;;;149.93;13.33;;;;;;;13.31;100.00;97863.78;4166653;28;20624;-80
2023/05/12 01:21:11;;;;;;;96.30;10.67;;;;;;;13.31;100.00;97866.41;4149682;28;20643;-80
2023/05/12 01:23:17;;;;;;;113.67;12.10;;;;;;;13.34;100.00;97867.94;4150212;28;20642;-80
2023/05/12 01:25:22;;;;;;;126.13;14.80;;;;;;;13.32;100.00;97862.84;4163434;28;20672;-81
2023/05/12 01:27:27;;;;;;;191.03;11.90;;;;;;;13.33;100.00;97863.66;4143400;28;20656;-80
2023/05/12 01:29:32;;;;;;;232.93;12.90;;;;;;;13.34;100.00;97857.47;4164522;28;20650;-80
2023/05/12 01:31:35;;;;;;;169.10;14.17;;;;;;;13.34;100.00;97857.47;4168697;28;20626;-80
2023/05/12 01:33:38;;;;;;;187.20;13.23;;;;;;;13.34;100.00;97862.72;4171266;28;21540;-81
2023/05/12 01:35:42;;;;;;;144.87;13.63;;;;;;;13.33;100.00;97863.66;4171352;28;20717;-81
2023/05/12 01:37:45;;;;;;;195.33;11.37;;;;;;;13.33;100.00;97866.28;4156133;28;20626;-81
2023/05/12 01:39:48;;;;;;;108.93;12.00;;;;;;;13.32;100.00;97870.69;4172652;28;20678;-80
2023/05/12 01:41:55;;;;;;;124.40;10.83;;;;;;;13.32;100.00;97860.22;4170713;28;21215;-80
2023/05/12 01:43:59;;;;;;;95.07;11.80;;;;;;;13.33;100.00;97863.66;4165817;28;20707;-80
2023/05/12 01:46:03;;;;;;;130.50;12.53;;;;;;;13.32;100.00;97864.59;4151041;28;20696;-80
2023/05/12 01:48:06;;;;;;;172.17;12.10;;;;;;;13.31;100.00;97866.41;4167806;28;20630;-80
2023/05/12 01:50:10;;;;;;;84.37;11.17;;;;;;;13.28;100.00;97863.22;4163827;28;20778;-81
2023/05/12 01:52:13;;;;;;;156.83;11.60;;;;;;;13.26;100.00;97868.59;4147480;28;20640;-80
2023/05/12 01:54:17;;;;;;;168.20;12.37;;;;;;;13.25;100.00;97872.16;4167684;28;20733;-80
2023/05/12 01:56:20;;;;;;;180.10;12.73;;;;;;;13.25;100.00;97874.78;4145944;28;20782;-80
2023/05/12 01:58:24;;;;;;;120.47;11.20;;;;;;;13.26;100.00;97865.09;4163182;28;20643;-80
2023/05/12 02:00:28;;;;;;;106.83;11.73;;;;;;;13.25;100.00;97873.94;4165056;28;20707;-80
2023/05/12 02:02:33;;;;;;;155.03;9.33;;;;;;;13.23;100.00;97873.25;4160490;28;21197;-80
2023/05/12 02:04:36;;;;;;;180.67;11.50;;;;;;;13.23;100.00;97874.06;4183423;28;21441;-80
2023/05/12 02:06:39;;;;;;;119.07;10.93;;;;;;;13.23;100.00;97875.88;4170204;28;21106;-80
2023/05/12 02:08:42;;;;;;;117.83;13.37;;;;;;;13.24;100.00;97874.91;4165806;28;20642;-80
2023/05/12 02:10:46;;;;;;;170.70;12.80;;;;;;;13.24;100.00;97872.28;4153005;28;21249;-80
2023/05/12 02:12:49;;;;;;;172.57;10.40;;;;;;;13.24;100.00;97877.50;4167454;28;20665;-80
2023/05/12 02:14:52;;;;;;;173.10;13.53;;;;;;;13.25;100.00;97871.31;4156034;28;20634;-80
2023/05/12 02:16:57;;;;;;;143.80;10.53;;;;;;;13.24;100.00;97869.66;4165016;28;20733;-80
2023/05/12 02:19:00;;;;;;;153.30;13.00;;;;;;;13.23;100.00;97866.22;4153616;28;20635;-80
2023/05/12 02:21:06;;;;;;;99.30;13.93;;;;;;;13.20;100.00;97869.09;4166036;28;20652;-80
2023/05/12 02:23:09;;;;;;;156.83;11.10;;;;;;;13.19;100.00;97870.03;4164001;28;20633;-80
2023/05/12 02:25:13;;;;;;;148.93;13.83;;;;;;;13.20;100.00;97863.03;4155874;28;20694;-81
2023/05/12 02:27:16;;;;;;;125.00;12.43;;;;;;;13.19;100.00;97871.81;4165745;28;20638;-80
2023/05/12 02:29:19;;;;;;;189.43;11.73;;;;;;;13.19;100.00;97871.81;4150021;28;20693;-80
2023/05/12 02:31:24;;;;;;;139.90;12.13;;;;;;;13.18;100.00;97869.34;4150350;28;20646;-80
2023/05/12 02:33:30;;;;;;;165.00;11.73;;;;;;;13.17;100.00;97867.66;4160840;28;20680;-80
2023/05/12 02:35:33;;;;;;;118.07;12.53;;;;;;;13.16;100.00;97871.25;4157672;28;20633;-80
2023/05/12 02:37:36;;;;;;;148.13;12.53;;;;;;;13.14;100.00;97868.78;4151888;28;20694;-80
2023/05/12 02:39:40;;;;;;;88.20;10.50;;;;;;;13.14;100.00;97868.78;4143855;28;21209;-80
2023/05/12 02:41:43;;;;;;;87.00;11.80;;;;;;;13.14;100.00;97868.78;4154473;28;20638;-80
2023/05/12 02:43:46;;;;;;;143.87;12.03;;;;;;;13.13;100.00;97866.28;4155004;28;20641;-80
2023/05/12 02:45:50;;;;;;;154.67;10.57;;;;;;;13.11;100.00;97865.53;4153667;28;20663;-80
2023/05/12 02:47:53;;;;;;;187.70;10.77;;;;;;;13.10;100.00;97866.53;4162319;28;20664;-80
2023/05/12 02:49:58;;;;;;;67.20;10.40;;;;;;;13.09;100.00;97867.47;4167867;28;20643;-80
2023/05/12 02:52:01;;;;;;;124.70;12.93;;;;;;;13.08;100.00;97874.50;4164630;28;20646;-80
2023/05/12 02:54:05;;;;;;;137.30;8.80;;;;;;;13.06;100.00;97865.91;4131431;28;20663;-80
2023/05/12 02:56:08;;;;;;;186.80;11.80;;;;;;;13.07;100.00;97861.53;4164604;28;20630;-80
2023/05/12 02:58:11;;;;;;;156.07;13.83;;;;;;;13.05;100.00;97859.03;4148924;28;20699;-80
2023/05/12 03:00:15;;;;;;;160.97;10.53;;;;;;;13.04;100.00;97862.59;4162177;28;20661;-81
2023/05/12 03:02:18;;;;;;;124.27;13.27;;;;;;;13.02;100.00;97869.78;4162536;28;20636;-80
2023/05/12 03:04:21;;;;;;;163.90;13.60;;;;;;;12.98;100.00;97863.09;4151288;28;20622;-80
2023/05/12 03:06:26;;;;;;;142.40;13.60;;;;;;;12.97;99.70;97865.84;4167374;28;20684;-80
2023/05/12 03:08:29;;;;;;;170.00;12.30;;;;;;;12.96;99.92;97859.78;4166390;28;20638;-80
2023/05/12 03:10:32;;;;;;;89.73;14.43;;;;;;;12.99;100.00;97863.94;4164671;28;20971;-80
2023/05/12 03:12:36;;;;;;;144.03;13.20;;;;;;;12.99;100.00;97861.31;4149044;28;21306;-80
2023/05/12 03:14:39;;;;;;;130.17;11.30;;;;;;;13.00;100.00;97861.19;4170539;28;20746;-80
2023/05/12 03:16:42;;;;;;;174.77;14.70;;;;;;;12.99;100.00;97867.41;4152707;28;20637;-81
2023/05/12 03:18:46;;;;;;;222.57;14.03;;;;;;;12.97;100.00;97866.66;4182701;28;21021;-80
2023/05/12 03:20:49;;;;;;;108.30;13.43;;;;;;;12.96;100.00;97864.19;4169341;28;20631;-80
2023/05/12 03:22:54;;;;;;;177.70;10.93;;;;;;;12.97;100.00;97864.06;4154547;28;20654;-80
2023/05/12 03:24:57;;;;;;;157.57;12.83;;;;;;;12.97;100.00;97871.91;4180564;28;20633;-80
2023/05/12 03:27:00;;;;;;;80.80;11.27;;;;;;;12.97;100.00;97868.47;4152852;28;21013;-80
2023/05/12 03:29:03;;;;;;;117.77;12.80;;;;;;;12.96;100.00;97870.25;4161247;28;20688;-80
2023/05/12 03:31:06;;;;;;;134.67;12.80;;;;;;;12.98;100.00;97867.53;4164376;28;20633;-80
2023/05/12 03:33:10;;;;;;;94.60;12.33;;;;;;;12.99;100.00;97875.25;4167825;28;20638;-80
2023/05/12 03:35:13;;;;;;;161.17;12.83;;;;;;;13.00;100.00;97871.66;4158501;28;20636;-81
2023/05/12 03:37:16;;;;;;;144.20;14.33;;;;;;;13.00;100.00;97869.03;4162986;28;20691;-80
2023/05/12 03:39:23;;;;;;;120.97;11.10;;;;;;;13.03;100.00;97874.03;4146629;28;21216;-80
2023/05/12 03:41:27;;;;;;;101.13;10.63;;;;;;;13.02;100.00;97871.53;4161434;28;20638;-80
2023/05/12 03:43:30;;;;;;;176.20;10.93;;;;;;;13.00;100.00;97871.66;4152010;28;20638;-80
2023/05/12 03:45:33;;;;;;;141.73;11.83;;;;;;;12.99;100.00;97866.53;4149580;28;21309;-80
2023/05/12 03:47:39;;;;;;;135.00;13.73;;;;;;;12.98;100.00;97872.75;4165922;28;21053;-80
2023/05/12 03:49:42;;;;;;;161.80;15.20;;;;;;;12.94;100.00;97866.91;4164140;28;20632;-80
2023/05/12 03:51:46;;;;;;;133.43;11.83;;;;;;;12.94;100.00;97868.72;4164375;28;20729;-80
2023/05/12 03:53:49;;;;;;;102.53;13.33;;;;;;;12.93;100.00;97870.50;4168395;28;20636;-81
2023/05/12 03:55:53;;;;;;;82.47;14.50;;;;;;;12.95;100.00;97862.53;4161676;28;20634;-81
2023/05/12 03:57:56;;;;;;;187.80;12.00;;;;;;;12.96;100.00;97865.03;4166455;28;20619;-80
2023/05/12 04:00:00;;;;;;;124.77;12.90;;;;;;;12.97;100.00;97860.63;4152035;28;20634;-81
2023/05/12 04:02:06;;;;;;;95.80;12.10;;;;;;;12.97;100.00;97863.22;4152665;28;21006;-81
2023/05/12 04:04:12;;;;;;;67.47;12.10;;;;;;;12.99;100.00;97870.00;4166564;28;21238;-80
2023/05/12 04:06:15;;;;;;;126.37;11.50;;;;;;;12.99;100.00;97870.00;4151302;28;20668;-80
2023/05/12 04:08:19;;;;;;;139.77;11.00;;;;;;;13.00;100.00;97869.03;4153214;28;20722;-80
2023/05/12 04:10:22;;;;;;;151.27;10.77;;;;;;;13.02;100.00;97868.91;4154408;28;20639;-80
2023/05/12 04:12:26;;;;;;;150.13;11.93;;;;;;;13.02;100.00;97864.53;4165869;28;21144;-80
2023/05/12 04:14:30;;;;;;;139.13;12.10;;;;;;;13.04;100.00;97870.47;4156355;28;20631;-81
2023/05/12 04:16:44;;;;;;;105.80;11.90;;;;;;;13.04;100.00;97861.78;4164243;28;20638;-80
2023/05/12 04:18:48;;;;;;;173.27;12.73;;;;;;;13.05;100.00;97866.03;4158345;28;21182;-80
2023/05/12 04:20:52;;;;;;;102.33;12.33;;;;;;;13.06;100.00;97865.09;4147427;28;20672;-80
2023/05/12 04:22:55;;;;;;;155.07;12.23;;;;;;;13.08;100.00;97857.94;4168610;28;20624;-80
2023/05/12 04:24:59;;;;;;;130.43;16.63;;;;;;;13.10;100.00;97866.53;4168039;28;20644;-80
2023/05/12 04:27:02;;;;;;;189.43;12.20;;;;;;;13.11;100.00;97869.03;4172290;28;20714;-80
2023/05/12 04:29:06;;;;;;;98.80;11.07;;;;;;;13.10;100.00;97877.81;4164549;28;20658;-81
2023/05/12 04:31:09;;;;;;;152.60;14.53;;;;;;;13.08;100.00;97869.28;4151284;28;20781;-80
2023/05/12 04:33:13;;;;;;;195.73;12.90;;;;;;;13.09;100.00;97870.91;4150352;28;20769;-80
2023/05/12 04:35:18;;;;;;;101.80;11.67;;;;;;;13.11;100.00;97871.63;4162826;28;20732;-80
2023/05/12 04:37:21;;;;;;;178.53;13.20;;;;;;;13.15;100.00;97885.31;4148527;28;20678;-80
2023/05/12 04:39:24;;;;;;;186.70;14.33;;;;;;;13.15;100.00;97873.03;4163413;28;20639;-80
2023/05/12 04:41:27;;;;;;;144.50;11.30;;;;;;;13.18;100.00;97880.63;4155010;28;20646;-80
2023/05/12 04:43:31;;;;;;;110.23;12.90;;;;;;;13.17;100.00;97876.38;4154238;28;20642;-80
2023/05/12 04:45:39;;;;;;;123.50;10.30;;;;;;;13.18;100.00;97879.81;4157754;28;20661;-81
2023/05/12 04:47:42;;;;;;;180.00;13.50;;;;;;;13.18;100.00;97878.00;4172335;28;20686;-80
2023/05/12 04:49:45;;;;;;;145.93;14.63;;;;;;;13.19;100.00;97888.38;4167794;28;20736;-80
2023/05/12 04:51:49;;;;;;;205.77;13.20;;;;;;;13.21;100.00;97883.84;4168084;28;21093;-80
2023/05/12 04:53:52;;;;;;;105.93;13.30;;;;;;;13.22;100.00;97893.34;4153523;28;20734;-80
2023/05/12 04:55:56;;;;;;;175.10;12.10;;;;;;;13.23;100.00;97894.19;4160936;28;20684;-80
2023/05/12 04:58:00;;;;;;;135.60;13.93;;;;;;;13.25;100.00;97894.91;4185154;28;20621;-81
2023/05/12 05:00:06;;;;;;;128.37;14.73;;;;;;;13.25;100.00;97893.09;4146941;28;20646;-80
2023/05/12 05:02:11;;;;;;;105.50;12.43;;;;;;;13.25;100.00;97900.13;4161487;28;20638;-81
2023/05/12 05:04:14;;;;;;;161.47;12.30;;;;;;;13.27;100.00;97904.28;4173126;28;21053;-81
2023/05/12 05:06:18;;;;;;;138.87;10.13;;;;;;;13.27;100.00;97901.66;4152783;28;20705;-81
2023/05/12 05:08:21;;;;;;;113.93;13.13;;;;;;;13.26;100.00;97907.88;4163432;28;20630;-81
2023/05/12 05:10:24;;;;;;;130.30;14.60;;;;;;;13.29;100.00;97904.16;4167153;28;21209;-81
2023/05/12 05:12:27;;;;;;;144.00;12.20;;;;;;;13.30;100.00;97908.44;4166768;28;20691;-81
2023/05/12 05:14:30;;;;;;;121.17;11.33;;;;;;;13.32;100.00;97906.50;4182546;28;21177;-80
2023/05/12 05:16:34;;;;;;;129.77;12.83;;;;;;;13.32;100.00;97901.28;4161593;28;20656;-80
2023/05/12 05:18:41;;;;;;;119.33;11.23;;;;;;;13.34;100.00;97909.88;4148073;28;20700;-80
2023/05/12 05:20:44;;;;;;;155.03;11.10;;;;;;;13.35;100.00;97903.66;4150396;28;20662;-80
2023/05/12 05:23:00;;;;;;;101.80;11.47;;;;;;;13.37;100.00;97910.44;4166347;28;20671;-80
2023/05/12 05:25:03;;;;;;;113.80;13.87;;;;;;;13.39;100.00;97911.13;4147386;28;20735;-80
2023/05/12 05:27:08;;;;;;;157.63;14.30;;;;;;;13.41;100.00;97913.63;4166265;28;20653;-80
2023/05/12 05:29:11;;;;;;;124.40;13.90;;;;;;;13.43;100.00;97919.59;4162275;28;20645;-81
2023/05/12 05:31:16;;;;;;;156.27;14.30;;;;;;;13.44;100.00;97919.47;4166048;28;20745;-81
2023/05/12 05:33:19;;;;;;;126.37;14.30;;;;;;;13.46;100.00;97916.72;4148589;28;20644;-81
2023/05/12 05:35:23;;;;;;;151.03;13.60;;;;;;;13.46;100.00;97916.72;4166612;28;20634;-81
2023/05/12 05:37:28;;;;;;;95.20;11.53;;;;;;;13.45;100.00;97918.47;4166230;28;20663;-81
2023/05/12 05:39:31;;;;;;;167.73;11.10;;;;;;;13.48;100.00;97920.03;4171015;28;20648;-81
2023/05/12 05:41:35;;;;;;;108.03;12.00;;;;;;;13.51;100.00;97919.78;4157811;28;20634;-81
2023/05/12 05:43:38;;;;;;;142.93;11.50;;;;;;;13.54;100.00;97919.53;4154508;28;20665;-81
2023/05/12 05:45:41;;;;;;;141.63;11.63;;;;;;;13.54;100.00;97914.28;4168491;28;20664;-81
2023/05/12 05:47:45;;;;;;;156.07;11.50;;;;;;;13.56;100.00;97923.69;4169144;28;21387;-81
2023/05/12 05:49:48;;;;;;;173.60;12.37;;;;;;;13.57;100.00;97916.66;4166383;28;21209;-80
2023/05/12 05:51:53;;;;;;;181.87;12.70;;;;;;;13.62;100.00;97922.34;4152120;28;20628;-80
2023/05/12 05:53:56;;;;;;;197.97;12.93;;;;;;;13.66;100.00;97919.34;4180713;28;20636;-81
2023/05/12 05:56:00;;;;;;;160.67;13.33;;;;;;;13.67;100.00;97924.44;4177470;28;21094;-80
2023/05/12 05:58:05;;;;;;;184.63;14.63;;;;;;;13.68;100.00;97926.13;4147601;28;21258;-80
2023/05/12 06:00:09;;;;;;;149.13;10.93;;;;;;;13.66;100.00;97921.94;4172522;28;20637;-80
2023/05/12 06:02:16;;;;;;;167.10;13.30;;;;;;;13.65;100.00;97921.13;4168889;28;20636;-80
2023/05/12 06:04:19;;;;;;;164.57;13.60;;;;;;;13.65;100.00;97929.00;4156009;28;20728;-80
2023/05/12 06:06:23;;;;;;;135.27;13.47;;;;;;;13.68;100.00;97927.88;4152443;28;20772;-80
2023/05/12 06:08:27;;;;;;;148.33;12.93;;;;;;;13.73;100.00;97934.41;4151559;28;20751;-80
2023/05/12 06:10:31;;;;;;;149.13;13.93;;;;;;;13.76;100.00;97934.16;4144791;28;20739;-80
2023/05/12 06:12:34;;;;;;;133.77;14.13;;;;;;;13.78;100.00;97931.41;4141118;28;20732;-80
2023/05/12 06:14:37;;;;;;;134.57;13.73;;;;;;;13.81;100.00;97939.03;4153444;28;20641;-80
2023/05/12 06:16:40;;;;;;;153.80;12.83;;;;;;;13.84;100.00;97934.34;4166518;28;20728;-80
2023/05/12 06:18:43;;;;;;;127.30;12.77;;;;;;;13.87;100.00;97946.38;4167620;28;21015;-80
2023/05/12 06:20:47;;;;;;;145.40;14.03;;;;;;;13.90;100.00;97941.69;4168432;28;20638;-80
2023/05/12 06:22:51;;;;;;;124.37;13.13;;;;;;;13.90;100.00;97939.06;4167472;28;21122;-81
2023/05/12 06:24:55;;;;;;;142.00;13.07;;;;;;;13.93;100.00;97941.44;4164703;28;20630;-80
2023/05/12 06:26:58;;;;;;;147.87;12.70;;;;;;;13.99;100.00;97946.16;4149439;28;20644;-80
2023/05/12 06:29:02;;;;;;;81.20;13.53;;;;;;;14.05;100.00;97943.06;4145737;28;20647;-80
2023/05/12 06:31:07;;;;;;;171.50;13.63;;;;;;;14.13;100.00;97940.63;4150917;28;20632;-80
2023/05/12 06:33:10;;;;;;;154.33;11.70;;;;;;;14.22;100.00;97948.56;4145662;28;21307;-80
2023/05/12 06:35:13;;;;;;;131.10;12.00;;;;;;;14.30;100.00;97953.16;4151380;28;20653;-80
2023/05/12 06:37:16;;;;;;;146.73;13.90;;;;;;;14.37;100.00;97955.13;4157630;28;20629;-81
2023/05/12 06:39:19;;;;;;;206.27;14.37;;;;;;;14.45;100.00;97957.06;4159140;28;20732;-81
2023/05/12 06:41:24;;;;;;;127.07;13.30;;;;;;;14.52;100.00;97952.97;4164986;28;20694;-80
2023/05/12 06:43:27;;;;;;;134.47;12.33;;;;;;;14.58;100.00;97953.25;4149341;28;21004;-80
2023/05/12 06:45:30;;;;;;;73.57;14.67;;;;;;;14.65;100.00;97954.41;4164819;28;21071;-81
2023/05/12 06:47:34;;;;;;;105.77;15.83;;;;;;;14.70;100.00;97955.69;4150604;28;20663;-80
2023/05/12 06:49:38;;;;;;;148.77;12.93;;;;;;;14.76;100.00;97954.28;4150221;28;20764;-81
2023/05/12 06:51:41;;;;;;;157.97;14.43;;;;;;;14.78;99.95;97958.47;4170235;28;20751;-81
2023/05/12 06:53:46;;;;;;;162.43;14.93;;;;;;;14.79;99.95;97952.25;4168819;28;20758;-80
2023/05/12 06:55:49;;;;;;;108.23;13.00;;;;;;;14.78;99.32;97955.00;4153379;28;22034;-82
2023/05/12 06:57:55;;;;;;;195.03;12.50;;;;;;;14.77;98.20;97958.59;4162094;28;20633;-81
2023/05/12 06:59:59;;;;;;;93.77;12.17;;;;;;;14.79;99.02;97957.50;4137974;28;20802;-81
2023/05/12 07:02:03;;;;;;;145.80;13.83;;;;;;;14.80;99.47;97955.69;4137214;28;20709;-81
2023/05/12 07:04:06;;;;;;;147.40;12.53;;;;;;;14.83;100.00;97953.63;4163445;28;21009;-81
2023/05/12 07:06:10;;;;;;;118.53;13.83;;;;;;;14.89;100.00;97958.34;4147650;28;20763;-81
2023/05/12 07:08:13;;;;;;;128.27;12.43;;;;;;;14.91;98.05;97956.41;4169587;28;20660;-81
2023/05/12 07:10:16;;;;;;;115.07;14.00;;;;;;;14.96;100.00;97953.38;4169079;28;20642;-81
2023/05/12 07:12:20;;;;;;;137.50;15.43;;;;;;;14.94;98.55;97957.94;4151182;28;20644;-81
2023/05/12 07:14:24;;;;;;;148.10;11.27;;;;;;;14.95;98.77;97962.25;4163446;28;20990;-81
2023/05/12 07:16:27;;;;;;;108.63;12.83;;;;;;;14.97;98.87;97957.69;4164667;28;20647;-81
2023/05/12 07:18:30;;;;;;;141.40;13.43;;;;;;;14.99;98.91;97955.72;4168025;28;20681;-81
2023/05/12 07:20:34;;;;;;;113.83;16.50;;;;;;;15.01;98.95;97954.66;4159728;28;20774;-80
2023/05/12 07:22:37;;;;;;;155.70;14.83;;;;;;;15.06;97.60;97960.31;4165975;28;20646;-79
2023/05/12 07:24:42;;;;;;;149.20;14.50;;;;;;;15.07;97.56;97959.34;4153709;28;20644;-81
2023/05/12 07:26:46;;;;;;;113.60;13.03;;;;;;;15.04;95.99;97950.94;4161802;28;20673;-81
2023/05/12 07:28:49;;;;;;;102.13;13.73;;;;;;;15.03;95.19;97949.25;4156308;28;20678;-80
2023/05/12 07:30:53;;;;;;;189.37;14.03;;;;;;;15.04;97.72;97948.31;4135015;28;21213;-81
2023/05/12 07:32:56;;;;;;;116.53;13.13;;;;;;;15.01;96.95;97949.38;4158369;28;20650;-81
2023/05/12 07:35:00;;;;;;;129.40;15.20;;;;;;;15.01;97.62;97944.13;4163281;28;20643;-80
2023/05/12 07:37:05;;;;;;;144.13;13.43;;;;;;;14.95;96.46;97947.31;4153820;28;21450;-80
2023/05/12 07:39:08;;;;;;;113.13;15.00;;;;;;;14.91;94.85;97945.91;4162736;28;20739;-80
2023/05/12 07:41:11;;;;;;;170.50;14.10;;;;;;;14.89;96.57;97942.59;4149341;28;20989;-80
2023/05/12 07:43:16;;;;;;;99.70;13.90;;;;;;;14.96;96.99;97942.88;4169406;28;20644;-80
2023/05/12 07:45:21;;;;;;;155.03;14.83;;;;;;;15.05;98.35;97957.81;4162450;28;20673;-80
2023/05/12 07:47:27;;;;;;;163.20;14.40;;;;;;;15.07;97.65;97948.84;4169067;28;20671;-81
2023/05/12 07:49:30;;;;;;;134.47;15.30;;;;;;;15.12;95.51;97950.13;4174761;28;20659;-80
2023/05/12 07:51:33;;;;;;;169.80;10.53;;;;;;;15.20;95.76;97952.09;4163913;28;21075;-80
2023/05/12 07:53:37;;;;;;;140.77;12.33;;;;;;;15.23;96.39;97949.16;4172129;28;20640;-80
2023/05/12 07:55:40;;;;;;;118.17;9.90;;;;;;;15.17;95.68;97939.22;4169242;28;20676;-80
2023/05/12 07:57:43;;;;;;;160.97;11.63;;;;;;;15.19;94.65;97946.00;4165796;28;21563;-80
2023/05/12 07:59:46;;;;;;;114.57;9.43;;;;;;;15.22;94.13;97939.66;4160651;28;20635;-80
2023/05/12 08:01:49;;;;;;;156.70;11.23;;;;;;;15.21;95.54;97940.59;4169056;28;21099;-80
2023/05/12 08:03:54;;;;;;;139.53;11.60;;;;;;;15.13;93.72;97933.38;4150980;28;21035;-80
2023/05/12 08:05:57;;;;;;;56.63;7.43;;;;;;;14.96;91.82;97935.84;4132476;28;20723;-80
2023/05/12 08:08:01;;;;;;;141.30;13.13;;;;;;;14.95;93.98;97944.69;4149196;28;20640;-80
2023/05/12 08:10:06;;;;;;;81.00;11.03;;;;;;;14.93;94.42;97933.47;4154987;28;20659;-80
2023/05/12 08:12:09;;;;;;;94.30;9.53;;;;;;;15.04;95.67;97937.78;4152481;28;21110;-80
2023/05/12 08:14:13;;;;;;;116.73;10.07;;;;;;;15.17;95.00;97941.84;4142060;28;20734;-80
2023/05/12 08:16:16;;;;;;;106.57;8.50;;;;;;;15.25;92.84;97944.63;4162848;28;20650;-80
2023/05/12 08:18:19;;;;;;;183.20;8.97;;;;;;;15.39;94.95;97954.72;4155333;28;21966;-80
2023/05/12 08:20:24;;;;;;;134.17;10.90;;;;;;;15.45;93.14;97949.75;4148677;28;21080;-80
2023/05/12 08:22:28;;;;;;;98.33;8.10;;;;;;;15.44;90.78;97942.00;4161516;28;20706;-79
2023/05/12 08:24:31;;;;;;;110.13;8.37;;;;;;;15.52;90.48;97948.22;4162059;28;20667;-80
2023/05/12 08:26:34;;;;;;;38.10;5.70;;;;;;;15.57;91.45;97949.50;4159292;28;21080;-81
2023/05/12 08:28:38;;;;;;;37.10;7.73;;;;;;;15.64;91.37;97950.56;4163168;28;20709;-82
2023/05/12 08:30:41;;;;;;;84.77;10.43;;;;;;;15.57;91.53;97940.75;4165440;28;21376;-83
2023/05/12 08:32:44;;;;;;;148.07;12.13;;;;;;;15.54;91.75;97942.84;4171710;28;20639;-82
2023/05/12 08:34:47;;;;;;;111.53;8.63;;;;;;;15.54;89.95;97942.84;4169905;28;20639;-81
2023/05/12 08:36:53;;;;;;;169.50;9.53;;;;;;;15.50;89.15;97946.69;4168166;28;20652;-82
2023/05/12 08:38:56;;;;;;;185.03;11.13;;;;;;;15.53;90.47;97938.53;4161600;28;20635;-82
2023/05/12 08:41:08;;;;;;;58.43;10.97;;;;;;;15.59;89.70;97950.16;4168092;28;20663;-82
2023/05/12 08:43:18;;;;;;;96.93;11.00;;;;;;;15.51;90.86;97951.00;4165131;28;20639;-82
2023/05/12 08:45:21;;;;;;;111.17;10.13;;;;;;;15.39;89.71;97942.41;4165216;28;24648;-82
2023/05/12 08:47:25;;;;;;;220.20;13.60;;;;;;;15.42;92.07;97951.81;4167672;28;20636;-82
2023/05/12 08:49:29;;;;;;;104.23;10.13;;;;;;;15.47;92.90;97950.47;4147079;28;20743;-82
2023/05/12 08:51:32;;;;;;;96.63;10.67;;;;;;;15.55;92.40;97947.97;4166399;28;20635;-82
2023/05/12 08:53:38;;;;;;;99.17;9.47;;;;;;;15.60;90.71;97951.81;4168687;28;20629;-82
2023/05/12 08:55:42;;;;;;;98.60;11.90;;;;;;;15.69;91.57;97956.25;4171551;28;21446;-82
2023/05/12 08:58:01;;;;;;;119.97;10.40;;;;;;;15.77;91.85;97958.19;4170544;28;20635;-82
2023/05/12 09:00:05;;;;;;;144.53;9.53;;;;;;;15.79;89.14;97957.06;4167715;28;20691;-82
2023/05/12 09:02:10;;;;;;;159.37;10.93;;;;;;;15.75;89.81;97960.94;4172224;28;20814;-82
2023/05/12 09:04:14;;;;;;;146.27;11.93;;;;;;;15.71;89.85;97956.09;4151119;28;20625;-82
2023/05/12 09:06:17;;;;;;;83.73;11.67;;;;;;;15.63;88.82;97955.97;4169046;28;20666;-82
2023/05/12 09:08:20;;;;;;;148.73;9.90;;;;;;;15.64;89.08;97949.75;4163912;28;20754;-82
2023/05/12 09:10:27;;;;;;;146.07;10.83;;;;;;;15.81;89.21;97952.50;4163843;28;20787;-84
2023/05/12 09:12:37;;;;;;;121.23;11.63;;;;;;;15.98;89.17;97950.94;4166368;28;20657;-82
2023/05/12 09:14:41;;;;;;;81.27;7.73;;;;;;;16.31;88.95;97956.59;4163596;28;20640;-82
2023/05/12 09:16:45;;;;;;;136.50;11.13;;;;;;;16.34;87.41;97953.66;4167149;28;20647;-83
2023/05/12 09:18:50;;;;;;;149.13;9.80;;;;;;;16.44;87.11;97957.13;4163836;28;20639;-82